createdAt,value
2017-09-22T00:01:50.156Z,8.88
2017-09-22T00:04:18.717Z,8.77
2017-09-22T00:06:46.495Z,10.13
2017-09-22T00:09:14.344Z,9.60
2017-09-22T00:11:42.163Z,10.07
2017-09-22T00:14:09.943Z,7.80
2017-09-22T00:16:37.745Z,9.02
2017-09-22T00:19:05.509Z,8.48
2017-09-22T00:21:33.348Z,11.32
2017-09-22T00:24:01.118Z,9.38
2017-09-22T00:26:28.892Z,11.12
2017-09-22T00:28:56.704Z,9.43
2017-09-22T00:31:24.480Z,8.82
2017-09-22T00:33:52.296Z,9.73
2017-09-22T00:36:20.834Z,9.48
2017-09-22T00:38:48.615Z,9.57
2017-09-22T00:41:16.419Z,10.10
2017-09-22T00:43:44.183Z,9.52
2017-09-22T00:46:12.029Z,10.13
2017-09-22T00:48:40.574Z,11.80
2017-09-22T00:51:08.365Z,9.90
2017-09-22T00:53:36.188Z,11.15
2017-09-22T00:56:03.973Z,12.60
2017-09-22T00:58:31.813Z,10.68
2017-09-22T01:00:59.587Z,12.00
2017-09-22T01:03:27.389Z,11.27
2017-09-22T01:05:55.504Z,12.18
2017-09-22T01:08:23.290Z,11.40
2017-09-22T01:10:51.120Z,14.23
2017-09-22T01:13:18.895Z,13.35
2017-09-22T01:15:46.666Z,10.25
2017-09-22T01:18:14.463Z,11.65
2017-09-22T01:20:43.012Z,12.90
2017-09-22T01:23:10.856Z,12.70
2017-09-22T01:25:38.636Z,13.20
2017-09-22T01:28:06.419Z,13.02
2017-09-22T01:30:34.987Z,10.45
2017-09-22T01:33:02.756Z,10.35
2017-09-22T01:35:30.578Z,13.00
2017-09-22T01:37:58.364Z,11.35
2017-09-22T01:40:26.152Z,12.32
2017-09-22T01:42:54.731Z,21.77
2017-09-22T01:45:23.260Z,14.50
2017-09-22T01:47:51.097Z,12.80
2017-09-22T01:50:18.881Z,13.07
2017-09-22T01:52:46.664Z,12.75
2017-09-22T01:55:14.467Z,14.75
2017-09-22T01:57:43.011Z,12.25
2017-09-22T02:00:10.863Z,13.27
2017-09-22T02:02:38.636Z,11.82
2017-09-22T02:05:06.686Z,12.15
2017-09-22T02:07:34.485Z,12.10
2017-09-22T02:10:02.269Z,13.02
2017-09-22T02:12:31.022Z,11.70
2017-09-22T02:14:58.808Z,11.80
2017-09-22T02:17:27.360Z,12.13
2017-09-22T02:19:55.177Z,10.80
2017-09-22T02:22:22.941Z,10.27
2017-09-22T02:24:50.771Z,12.68
2017-09-22T02:27:19.310Z,10.35
2017-09-22T02:29:47.089Z,9.73
2017-09-22T02:32:14.885Z,11.40
2017-09-22T02:34:43.437Z,11.85
2017-09-22T02:37:11.264Z,12.63
2017-09-22T02:39:39.037Z,11.45
2017-09-22T02:42:06.821Z,10.20
2017-09-22T02:44:34.632Z,9.93
2017-09-22T02:47:02.406Z,10.73
2017-09-22T02:49:30.255Z,11.12
2017-09-22T02:51:58.038Z,10.38
2017-09-22T02:54:25.829Z,12.35
2017-09-22T02:56:53.652Z,11.77
2017-09-22T02:59:21.425Z,9.65
2017-09-22T03:01:49.253Z,11.52
2017-09-22T03:04:17.795Z,10.95
2017-09-22T03:06:45.560Z,9.57
2017-09-22T03:09:13.365Z,9.95
2017-09-22T03:11:41.140Z,10.48
2017-09-22T03:14:09.274Z,10.85
2017-09-22T03:16:37.816Z,10.02
2017-09-22T03:19:05.583Z,11.27
2017-09-22T03:21:33.401Z,11.30
2017-09-22T03:24:01.185Z,12.00
2017-09-22T03:26:29.006Z,13.43
2017-09-22T03:28:57.547Z,10.30
2017-09-22T03:31:25.330Z,12.18
2017-09-22T03:33:53.161Z,11.18
2017-09-22T03:36:20.952Z,12.30
2017-09-22T03:38:48.780Z,10.43
2017-09-22T03:41:16.556Z,13.98
2017-09-22T03:43:44.342Z,14.68
2017-09-22T03:46:12.135Z,11.20
2017-09-22T03:48:40.671Z,10.30
2017-09-22T03:51:08.530Z,10.77
2017-09-22T03:53:36.312Z,13.30
2017-09-22T03:56:04.093Z,11.75
2017-09-22T03:58:32.668Z,11.70
2017-09-22T04:01:01.211Z,16.83
2017-09-22T04:03:29.036Z,11.40
2017-09-22T04:05:56.811Z,11.70
2017-09-22T04:08:24.573Z,10.40
2017-09-22T04:10:52.377Z,13.18
2017-09-22T04:13:20.143Z,10.20
2017-09-22T04:15:48.765Z,14.95
2017-09-22T04:18:16.543Z,11.52
2017-09-22T04:20:44.321Z,12.10
2017-09-22T04:23:12.127Z,11.93
2017-09-22T04:25:40.670Z,12.05
2017-09-22T04:28:08.533Z,11.70
2017-09-22T04:30:36.313Z,13.57
2017-09-22T04:33:04.086Z,13.90
2017-09-22T04:35:31.893Z,13.00
2017-09-22T04:37:59.669Z,10.90
2017-09-22T04:40:27.470Z,15.23
2017-09-22T04:42:55.258Z,13.05
2017-09-22T04:45:23.856Z,10.80
2017-09-22T04:47:51.654Z,13.35
2017-09-22T04:50:19.446Z,12.75
2017-09-22T04:52:48.028Z,10.13
2017-09-22T04:55:16.578Z,11.02
2017-09-22T04:57:44.439Z,13.75
2017-09-22T05:00:12.238Z,12.10
2017-09-22T05:02:40.775Z,9.88
2017-09-22T05:05:08.581Z,11.45
2017-09-22T05:07:37.127Z,11.12
2017-09-22T05:10:05.065Z,11.50
2017-09-22T05:12:32.857Z,10.90
2017-09-22T05:15:00.642Z,13.77
2017-09-22T05:17:29.222Z,11.38
2017-09-22T05:19:57.004Z,12.95
2017-09-22T05:22:25.612Z,12.82
2017-09-22T05:24:53.404Z,14.57
2017-09-22T05:27:21.185Z,14.68
2017-09-22T05:29:49.006Z,14.50
2017-09-22T05:32:16.782Z,11.88
2017-09-22T05:34:44.610Z,11.23
2017-09-22T05:37:12.381Z,12.10
2017-09-22T05:39:40.157Z,11.20
2017-09-22T05:42:07.962Z,10.52
2017-09-22T05:44:35.732Z,10.45
2017-09-22T05:47:04.341Z,10.85
2017-09-22T05:49:32.121Z,12.60
2017-09-22T05:51:59.897Z,10.10
2017-09-22T05:54:27.700Z,8.88
2017-09-22T05:56:56.239Z,9.70
2017-09-22T05:59:24.069Z,10.65
2017-09-22T06:01:51.852Z,10.40
2017-09-22T06:04:19.620Z,9.95
2017-09-22T06:06:47.437Z,10.30
2017-09-22T06:09:16.016Z,8.40
2017-09-22T06:11:44.610Z,11.50
2017-09-22T06:14:12.395Z,12.50
2017-09-22T06:16:40.174Z,9.48
2017-09-22T06:19:08.004Z,8.95
2017-09-22T06:21:35.776Z,10.38
2017-09-22T06:24:03.613Z,8.50
2017-09-22T06:26:32.147Z,7.32
2017-09-22T06:28:59.912Z,8.48
2017-09-22T06:31:27.706Z,7.40
2017-09-22T06:33:56.249Z,12.45
2017-09-22T06:36:24.096Z,6.70
2017-09-22T06:38:51.871Z,6.72
2017-09-22T06:41:19.632Z,7.43
2017-09-22T06:43:47.436Z,6.53
2017-09-22T06:46:15.981Z,8.07
2017-09-22T06:48:43.811Z,7.00
2017-09-22T06:51:11.608Z,5.80
2017-09-22T06:53:39.381Z,5.87
2017-09-22T06:56:07.192Z,5.68
2017-09-22T06:58:34.969Z,5.55
2017-09-22T07:01:02.769Z,4.95
2017-09-22T07:03:30.549Z,4.37
2017-09-22T07:05:58.376Z,4.85
2017-09-22T07:08:26.159Z,10.02
2017-09-22T07:10:53.945Z,5.35
2017-09-22T07:13:22.526Z,6.47
2017-09-22T07:15:51.060Z,6.40
2017-09-22T07:18:18.884Z,7.30
2017-09-22T07:20:46.648Z,7.45
2017-09-22T07:23:14.417Z,9.10
2017-09-22T07:25:42.230Z,7.15
2017-09-22T07:28:10.889Z,8.77
2017-09-22T07:30:38.734Z,6.55
2017-09-22T07:33:06.507Z,6.60
2017-09-22T07:35:34.281Z,6.10
2017-09-22T07:38:02.089Z,6.28
2017-09-22T07:40:30.628Z,6.32
2017-09-22T07:42:58.464Z,5.43
2017-09-22T07:45:26.231Z,7.28
2017-09-22T07:47:54.005Z,9.57
2017-09-22T07:50:21.805Z,5.62
2017-09-22T07:52:50.254Z,8.23
2017-09-22T07:55:18.076Z,3.70
2017-09-22T07:57:45.844Z,5.50
2017-09-22T08:00:13.607Z,4.95
2017-09-22T08:02:41.399Z,11.73
2017-09-22T08:05:09.162Z,5.28
2017-09-22T08:07:36.989Z,5.93
2017-09-22T08:10:04.764Z,3.03
2017-09-22T08:12:32.527Z,2.00
2017-09-22T08:15:00.315Z,3.22
2017-09-22T08:17:28.081Z,3.15
2017-09-22T08:19:55.894Z,2.45
2017-09-22T08:22:23.669Z,3.75
2017-09-22T08:24:51.460Z,2.42
2017-09-22T08:27:19.262Z,1.90
2017-09-22T08:29:47.794Z,1.45
2017-09-22T08:32:15.614Z,2.40
2017-09-22T08:34:44.147Z,1.50
2017-09-22T08:37:11.930Z,2.40
2017-09-22T08:39:39.733Z,2.30
2017-09-22T08:42:07.509Z,2.10
2017-09-22T08:44:35.334Z,4.60
2017-09-22T08:47:03.865Z,2.90
2017-09-22T08:49:31.636Z,2.03
2017-09-22T08:51:59.432Z,1.90
2017-09-22T08:54:27.958Z,1.02
2017-09-22T08:56:55.783Z,1.95
2017-09-22T08:59:24.324Z,1.12
2017-09-22T09:01:52.088Z,1.95
2017-09-22T09:04:19.879Z,2.05
2017-09-22T09:06:48.424Z,3.33
2017-09-22T09:09:16.244Z,2.80
2017-09-22T09:11:44.008Z,2.78
2017-09-22T09:14:11.777Z,1.52
2017-09-22T09:16:39.587Z,1.75
2017-09-22T09:19:07.350Z,1.30
2017-09-22T09:21:35.188Z,3.20
2017-09-22T09:24:02.965Z,4.15
2017-09-22T09:26:30.740Z,2.25
2017-09-22T09:28:59.014Z,2.03
2017-09-22T09:31:26.811Z,1.90
2017-09-22T09:33:55.395Z,1.65
2017-09-22T09:36:23.166Z,3.47
2017-09-22T09:38:50.929Z,3.33
2017-09-22T09:41:18.730Z,2.35
2017-09-22T09:43:46.499Z,3.05
2017-09-22T09:46:14.328Z,2.60
2017-09-22T09:48:42.109Z,1.95
2017-09-22T09:51:09.882Z,3.65
2017-09-22T09:53:37.673Z,1.48
2017-09-22T09:56:06.205Z,3.10
2017-09-22T09:58:34.062Z,2.47
2017-09-22T10:01:01.830Z,1.58
2017-09-22T10:03:29.612Z,2.30
2017-09-22T10:05:57.465Z,2.87
2017-09-22T10:08:25.243Z,2.05
2017-09-22T10:10:53.073Z,1.80
2017-09-22T10:13:20.855Z,2.70
2017-09-22T10:15:48.631Z,1.50
2017-09-22T10:18:16.445Z,2.33
2017-09-22T10:20:44.227Z,1.75
2017-09-22T10:23:12.051Z,4.37
2017-09-22T10:25:39.839Z,1.48
2017-09-22T10:28:07.602Z,3.92
2017-09-22T10:30:35.394Z,1.92
2017-09-22T10:33:03.169Z,1.50
2017-09-22T10:35:31.023Z,1.40
2017-09-22T10:37:58.804Z,1.60
2017-09-22T10:40:26.588Z,3.00
2017-09-22T10:42:55.193Z,1.73
2017-09-22T10:45:22.957Z,2.22
2017-09-22T10:47:50.792Z,2.25
2017-09-22T10:50:18.565Z,2.55
2017-09-22T10:52:46.336Z,1.95
2017-09-22T10:55:14.122Z,2.40
2017-09-22T10:57:41.894Z,1.50
2017-09-22T11:00:09.734Z,2.72
2017-09-22T11:02:37.509Z,3.40
2017-09-22T11:05:05.283Z,1.30
2017-09-22T11:07:33.079Z,1.37
2017-09-22T11:10:01.621Z,1.75
2017-09-22T11:12:29.469Z,2.28
2017-09-22T11:14:57.264Z,2.15
2017-09-22T11:17:25.039Z,2.28
2017-09-22T11:19:53.612Z,2.55
2017-09-22T11:22:21.391Z,3.78
2017-09-22T11:24:49.984Z,1.90
2017-09-22T11:27:18.515Z,2.15
2017-09-22T11:29:46.288Z,3.15
2017-09-22T11:32:14.091Z,3.15
2017-09-22T11:34:42.633Z,3.08
2017-09-22T11:37:10.450Z,4.72
2017-09-22T11:39:38.984Z,3.00
2017-09-22T11:42:06.766Z,3.28
2017-09-22T11:44:35.332Z,3.40
2017-09-22T11:47:03.179Z,4.30
2017-09-22T11:49:30.955Z,4.82
2017-09-22T11:51:59.539Z,3.42
2017-09-22T11:54:27.308Z,2.70
2017-09-22T11:56:55.860Z,5.22
2017-09-22T11:59:23.666Z,3.45
2017-09-22T12:01:52.202Z,3.17
2017-09-22T12:04:19.980Z,3.20
2017-09-22T12:06:47.812Z,3.80
2017-09-22T12:09:15.592Z,2.80
2017-09-22T12:11:43.369Z,3.05
2017-09-22T12:14:11.169Z,3.20
2017-09-22T12:16:38.933Z,3.10
2017-09-22T12:19:06.719Z,3.20
2017-09-22T12:21:34.528Z,2.92
2017-09-22T12:24:03.078Z,3.15
2017-09-22T12:26:30.839Z,4.47
2017-09-22T12:28:58.643Z,5.15
2017-09-22T12:31:26.418Z,3.53
2017-09-22T12:33:54.234Z,5.72
2017-09-22T12:36:22.031Z,3.87
2017-09-22T12:38:50.583Z,3.28
2017-09-22T12:41:18.380Z,2.15
2017-09-22T12:43:46.156Z,2.37
2017-09-22T12:46:13.988Z,3.80
2017-09-22T12:48:42.549Z,2.28
2017-09-22T12:51:10.313Z,2.37
2017-09-22T12:53:38.128Z,3.25
2017-09-22T12:56:05.897Z,3.25
2017-09-22T12:58:33.722Z,3.97
2017-09-22T13:01:02.266Z,2.37
2017-09-22T13:03:30.041Z,2.47
2017-09-22T13:05:57.859Z,2.55
2017-09-22T13:08:25.637Z,3.10
2017-09-22T13:10:53.503Z,3.58
2017-09-22T13:13:21.286Z,3.08
2017-09-22T13:15:49.054Z,3.40
2017-09-22T13:18:16.852Z,3.08
2017-09-22T13:20:44.632Z,3.45
2017-09-22T13:23:12.463Z,2.55
2017-09-22T13:25:41.002Z,2.62
2017-09-22T13:28:08.796Z,4.37
2017-09-22T13:30:37.368Z,2.97
2017-09-22T13:33:05.140Z,2.67
2017-09-22T13:35:33.761Z,2.33
2017-09-22T13:38:01.538Z,3.67
2017-09-22T13:40:29.313Z,2.67
2017-09-22T13:42:57.116Z,2.70
2017-09-22T13:45:25.671Z,2.60
2017-09-22T13:47:53.505Z,3.37
2017-09-22T13:50:21.277Z,4.25
2017-09-22T13:52:49.060Z,3.22
2017-09-22T13:55:16.868Z,3.37
2017-09-22T13:57:44.648Z,5.45
2017-09-22T14:00:13.241Z,4.50
2017-09-22T14:02:41.010Z,3.97
2017-09-22T14:05:08.793Z,5.07
2017-09-22T14:07:36.604Z,4.03
2017-09-22T14:10:04.373Z,3.35
2017-09-22T14:12:32.207Z,2.90
2017-09-22T14:15:00.745Z,2.58
2017-09-22T14:17:28.525Z,2.92
2017-09-22T14:19:56.338Z,4.95
2017-09-22T14:22:24.119Z,3.30
2017-09-22T14:24:51.957Z,2.50
2017-09-22T14:27:19.753Z,2.78
2017-09-22T14:29:47.580Z,5.60
2017-09-22T14:32:15.376Z,3.12
2017-09-22T14:34:43.142Z,4.25
2017-09-22T14:37:10.982Z,4.15
2017-09-22T14:39:38.764Z,3.42
2017-09-22T14:42:06.551Z,3.50
2017-09-22T14:44:34.355Z,5.72
2017-09-22T14:47:02.913Z,3.35
2017-09-22T14:49:31.534Z,4.87
2017-09-22T14:51:59.308Z,7.07
2017-09-22T14:54:27.086Z,4.75
2017-09-22T14:56:54.908Z,3.60
2017-09-22T14:59:22.690Z,5.97
2017-09-22T15:01:50.539Z,4.60
2017-09-22T15:04:18.319Z,4.03
2017-09-22T15:06:46.476Z,2.87
2017-09-22T15:09:14.558Z,3.80
2017-09-22T15:11:42.589Z,3.67
2017-09-22T15:14:10.554Z,4.93
2017-09-22T15:16:38.585Z,4.55
2017-09-22T15:19:06.770Z,3.97
2017-09-22T15:21:34.903Z,4.07
2017-09-22T15:24:03.633Z,3.80
2017-09-22T15:26:31.804Z,4.85
2017-09-22T15:29:00.193Z,5.85
2017-09-22T15:31:28.361Z,3.78
2017-09-22T15:33:56.406Z,3.50
2017-09-22T15:36:25.131Z,5.05
2017-09-22T15:38:53.453Z,3.00
2017-09-22T15:41:21.464Z,4.03
2017-09-22T15:43:50.484Z,3.72
2017-09-22T15:46:19.829Z,3.72
2017-09-22T15:48:47.782Z,3.10
2017-09-22T15:51:15.741Z,3.20
2017-09-22T15:53:43.750Z,7.20
2017-09-22T15:56:11.976Z,3.78
2017-09-22T15:58:40.170Z,4.12
2017-09-22T16:01:08.221Z,2.60
2017-09-22T16:03:37.157Z,3.70
2017-09-22T16:06:06.678Z,3.17
2017-09-22T16:08:34.624Z,3.22
2017-09-22T16:11:02.767Z,4.20
2017-09-22T16:13:31.219Z,4.28
2017-09-22T16:15:59.462Z,4.32
2017-09-22T16:18:28.672Z,3.72
2017-09-22T16:20:56.865Z,4.43
2017-09-22T16:23:25.435Z,6.28
2017-09-22T16:25:53.675Z,4.50
2017-09-22T16:28:22.592Z,7.43
2017-09-22T16:30:51.323Z,5.32
2017-09-22T16:33:19.549Z,5.28
2017-09-22T16:35:47.506Z,5.15
2017-09-22T16:38:15.568Z,5.65
2017-09-22T16:40:43.676Z,4.90
2017-09-22T16:43:13.083Z,5.20
2017-09-22T16:45:42.420Z,6.05
2017-09-22T16:48:10.697Z,7.40
2017-09-22T16:50:38.687Z,8.00
2017-09-22T16:53:07.382Z,6.35
2017-09-22T16:55:36.288Z,6.28
2017-09-22T16:58:04.493Z,7.07
2017-09-22T17:00:32.839Z,6.05
2017-09-22T17:03:00.747Z,7.35
2017-09-22T17:05:28.762Z,5.80
2017-09-22T17:07:57.500Z,7.80
2017-09-22T17:10:25.670Z,7.20
2017-09-22T17:12:53.584Z,5.60
2017-09-22T17:15:22.239Z,11.68
2017-09-22T17:17:50.255Z,12.35
2017-09-22T17:20:18.861Z,14.75
2017-09-22T17:22:46.779Z,15.93
2017-09-22T17:25:14.729Z,11.70
2017-09-22T17:27:42.634Z,11.25
2017-09-22T17:30:10.668Z,9.95
2017-09-22T17:32:39.464Z,10.63
2017-09-22T17:35:08.482Z,17.15
2017-09-22T17:37:36.609Z,9.73
2017-09-22T17:40:04.748Z,9.40
2017-09-22T17:42:32.654Z,13.75
2017-09-22T17:45:00.622Z,12.37
2017-09-22T17:47:28.464Z,13.93
2017-09-22T17:49:56.262Z,17.65
2017-09-22T17:52:24.808Z,14.13
2017-09-22T17:54:52.617Z,11.45
2017-09-22T17:57:20.463Z,11.93
2017-09-22T17:59:48.314Z,15.43
2017-09-22T18:02:16.150Z,11.55
2017-09-22T18:04:43.921Z,13.98
2017-09-22T18:07:11.763Z,14.40
2017-09-22T18:09:39.540Z,16.42
2017-09-22T18:12:07.384Z,21.37
2017-09-22T18:14:35.170Z,13.15
2017-09-22T18:17:02.964Z,16.73
2017-09-22T18:19:30.786Z,22.42
2017-09-22T18:21:58.595Z,37.83
2017-09-22T18:24:26.486Z,28.73
2017-09-22T18:26:54.273Z,33.75
2017-09-22T18:29:22.809Z,33.30
2017-09-22T18:31:51.429Z,34.25
2017-09-22T18:34:19.234Z,40.22
2017-09-22T18:36:47.063Z,41.70
2017-09-22T18:39:14.836Z,57.42
2017-09-22T18:41:42.603Z,71.30
2017-09-22T18:44:10.420Z,27.87
2017-09-22T18:46:38.964Z,44.05
2017-09-22T18:49:06.830Z,38.38
2017-09-22T18:51:34.617Z,35.17
2017-09-22T18:54:03.188Z,70.97
2017-09-22T18:56:31.819Z,58.28
2017-09-22T18:58:59.603Z,55.75
2017-09-22T19:01:27.438Z,58.22
2017-09-22T19:03:55.233Z,57.17
2017-09-22T19:06:23.027Z,115.35
2017-09-22T19:08:51.657Z,101.90
2017-09-22T19:11:19.436Z,54.60
2017-09-22T19:13:47.265Z,53.20
2017-09-22T19:16:15.063Z,49.90
2017-09-22T19:18:42.840Z,52.25
2017-09-22T19:21:10.668Z,62.90
2017-09-22T19:23:38.488Z,61.22
2017-09-22T19:26:07.080Z,57.50
2017-09-22T19:28:34.869Z,56.97
2017-09-22T19:31:02.979Z,60.38
2017-09-22T19:33:31.492Z,51.55
2017-09-22T19:35:59.325Z,54.75
2017-09-22T19:38:27.952Z,52.13
2017-09-22T19:40:55.736Z,49.55
2017-09-22T19:43:23.515Z,47.95
2017-09-22T19:45:51.359Z,51.55
2017-09-22T19:48:19.420Z,41.67
2017-09-22T19:50:47.375Z,47.78
2017-09-22T19:53:15.191Z,49.30
2017-09-22T19:55:42.989Z,47.35
2017-09-22T19:58:10.868Z,41.45
2017-09-22T20:00:38.671Z,43.67
2017-09-22T20:03:06.546Z,51.58
2017-09-22T20:05:34.402Z,45.95
2017-09-22T20:08:02.283Z,40.05
2017-09-22T20:10:30.869Z,45.65
2017-09-22T20:12:59.424Z,41.95
2017-09-22T20:15:27.321Z,45.22
2017-09-22T20:17:55.147Z,42.38
2017-09-22T20:20:22.961Z,44.60
2017-09-22T20:22:50.794Z,58.65
2017-09-22T20:25:19.346Z,41.75
2017-09-22T20:27:47.205Z,52.38
2017-09-22T20:30:15.010Z,44.08
2017-09-22T20:32:42.904Z,53.40
2017-09-22T20:35:10.759Z,44.72
2017-09-22T20:37:38.539Z,57.13
2017-09-22T20:40:07.135Z,59.78
2017-09-22T20:42:34.909Z,52.62
2017-09-22T20:45:02.678Z,51.97
2017-09-22T20:47:30.493Z,49.58
2017-09-22T20:49:58.267Z,57.78
2017-09-22T20:52:26.092Z,50.12
2017-09-22T20:54:54.650Z,54.80
2017-09-22T20:57:22.438Z,49.40
2017-09-22T20:59:50.254Z,44.13
2017-09-22T21:02:18.033Z,48.33
2017-09-22T21:04:45.855Z,42.97
2017-09-22T21:07:13.626Z,47.90
2017-09-22T21:09:41.400Z,43.90
2017-09-22T21:12:09.204Z,44.55
2017-09-22T21:14:37.748Z,52.15
2017-09-22T21:17:05.576Z,46.15
2017-09-22T21:19:33.355Z,43.63
2017-09-22T21:22:01.137Z,41.53
2017-09-22T21:24:28.948Z,43.20
2017-09-22T21:26:57.485Z,52.28
2017-09-22T21:29:25.309Z,50.50
2017-09-22T21:31:53.094Z,53.75
2017-09-22T21:34:20.891Z,46.03
2017-09-22T21:36:48.706Z,48.35
2017-09-22T21:39:16.497Z,44.75
2017-09-22T21:41:44.329Z,51.10
2017-09-22T21:44:12.112Z,47.22
2017-09-22T21:46:39.900Z,49.85
2017-09-22T21:49:07.700Z,48.92
2017-09-22T21:51:35.480Z,49.63
2017-09-22T21:54:03.305Z,46.45
2017-09-22T21:56:31.864Z,45.65
2017-09-22T21:58:59.645Z,40.92
2017-09-22T22:01:28.228Z,39.92
2017-09-22T22:04:02.516Z,35.95
2017-09-22T22:06:35.992Z,45.05
2017-09-22T22:09:04.677Z,46.78
2017-09-22T22:11:32.527Z,39.75
2017-09-22T22:14:00.309Z,50.67
2017-09-22T22:16:28.088Z,44.88
2017-09-22T22:18:55.901Z,42.03
2017-09-22T22:21:23.706Z,43.80
2017-09-22T22:23:51.533Z,41.20
2017-09-22T22:26:19.316Z,46.53
2017-09-22T22:28:47.098Z,41.03
2017-09-22T22:31:14.904Z,35.95
2017-09-22T22:33:42.685Z,32.47
2017-09-22T22:36:22.496Z,35.58
2017-09-22T22:38:51.045Z,32.47
2017-09-22T22:41:18.823Z,27.98
2017-09-22T22:43:47.410Z,22.83
2017-09-22T22:46:15.964Z,15.00
2017-09-22T22:48:43.797Z,16.10
2017-09-22T22:51:11.574Z,21.05
2017-09-22T22:53:39.349Z,20.45
2017-09-22T22:56:07.159Z,23.25
2017-09-22T22:58:34.940Z,15.98
2017-09-22T23:01:02.795Z,10.23
2017-09-22T23:03:30.579Z,12.50
2017-09-22T23:05:58.354Z,10.57
2017-09-22T23:08:26.157Z,9.32
2017-09-22T23:10:54.702Z,7.15
2017-09-22T23:13:22.547Z,4.65
2017-09-22T23:15:50.312Z,7.28
2017-09-22T23:18:18.072Z,7.05
2017-09-22T23:20:45.870Z,7.87
2017-09-22T23:23:13.630Z,6.40
2017-09-22T23:25:41.462Z,3.83
2017-09-22T23:28:09.227Z,5.28
2017-09-22T23:30:36.997Z,4.75
2017-09-22T23:33:04.812Z,9.23
2017-09-22T23:35:32.580Z,5.62
2017-09-22T23:38:00.401Z,10.48
2017-09-22T23:40:28.176Z,4.47
2017-09-22T23:42:56.708Z,6.47
2017-09-22T23:45:24.501Z,3.97
2017-09-22T23:47:52.269Z,10.70
2017-09-22T23:50:20.103Z,9.40
2017-09-22T23:52:48.644Z,7.93
2017-09-22T23:55:16.414Z,9.95
2017-09-22T23:57:44.243Z,10.20
